createdAt,value
2023-03-16T00:00:47.914Z,0.32
2023-03-16T00:01:47.874Z,0.31
2023-03-16T00:02:47.793Z,0.29
2023-03-16T00:03:47.645Z,0.28
2023-03-16T00:04:47.569Z,0.32
2023-03-16T00:05:47.474Z,0.29
2023-03-16T00:06:47.384Z,0.32
2023-03-16T00:07:47.286Z,0.34
2023-03-16T00:08:47.200Z,0.29
2023-03-16T00:09:47.106Z,0.29
2023-03-16T00:10:47.028Z,0.31
2023-03-16T00:11:46.936Z,0.25
2023-03-16T00:12:46.842Z,0.29
2023-03-16T00:13:46.754Z,0.24
2023-03-16T00:14:46.664Z,0.18
2023-03-16T00:15:46.593Z,0.16
2023-03-16T00:16:46.504Z,0.16
2023-03-16T00:17:46.442Z,0.22
2023-03-16T00:18:46.309Z,0.25
2023-03-16T00:19:46.214Z,0.21
2023-03-16T00:20:46.126Z,0.28
2023-03-16T00:21:46.050Z,0.21
2023-03-16T00:22:45.951Z,0.16
2023-03-16T00:23:45.856Z,0.17
2023-03-16T00:24:45.768Z,0.16
2023-03-16T00:25:45.679Z,0.21
2023-03-16T00:26:45.593Z,0.18
2023-03-16T00:27:45.498Z,0.16
2023-03-16T00:28:45.413Z,0.17
2023-03-16T00:29:45.319Z,0.25
2023-03-16T00:30:45.231Z,0.24
2023-03-16T00:31:45.416Z,0.22
2023-03-16T00:32:45.311Z,0.21
2023-03-16T00:33:44.966Z,0.17
2023-03-16T00:34:44.886Z,0.16
2023-03-16T00:35:44.814Z,0.21
2023-03-16T00:36:44.697Z,0.16
2023-03-16T00:37:44.731Z,0.22
2023-03-16T00:38:44.510Z,0.29
2023-03-16T00:39:44.432Z,0.24
2023-03-16T00:40:44.333Z,0.31
2023-03-16T00:41:44.746Z,0.25
2023-03-16T00:42:44.154Z,0.18
2023-03-16T00:43:44.079Z,0.21
2023-03-16T00:44:43.976Z,0.16
2023-03-16T00:45:43.975Z,0.18
2023-03-16T00:46:43.794Z,0.14
2023-03-16T00:47:43.726Z,0.22
2023-03-16T00:48:43.621Z,0.21
2023-03-16T00:49:43.528Z,0.25
2023-03-16T00:50:43.433Z,0.35
2023-03-16T00:51:43.345Z,0.28
2023-03-16T00:52:43.273Z,0.43
2023-03-16T00:53:43.172Z,0.47
2023-03-16T00:54:43.084Z,0.47
2023-03-16T00:55:42.989Z,0.57
2023-03-16T00:56:42.953Z,0.52
2023-03-16T00:57:42.810Z,0.64
2023-03-16T00:58:42.720Z,0.56
2023-03-16T00:59:42.630Z,0.62
2023-03-16T01:00:42.568Z,0.65
2023-03-16T01:01:42.570Z,0.65
2023-03-16T01:02:42.364Z,0.64
2023-03-16T01:03:42.551Z,0.72
2023-03-16T01:04:42.210Z,0.59
2023-03-16T01:05:42.100Z,0.66
2023-03-16T01:06:42.016Z,0.79
2023-03-16T01:07:41.919Z,0.83
2023-03-16T01:08:41.835Z,0.87
2023-03-16T01:09:41.738Z,0.83
2023-03-16T01:10:41.651Z,0.75
2023-03-16T01:11:41.562Z,0.79
2023-03-16T01:12:41.474Z,0.77
2023-03-16T01:13:41.382Z,0.71
2023-03-16T01:14:41.297Z,0.65
2023-03-16T01:15:41.205Z,0.57
2023-03-16T01:16:41.176Z,0.59
2023-03-16T01:17:41.027Z,0.50
2023-03-16T01:18:40.937Z,0.56
2023-03-16T01:19:41.112Z,0.57
2023-03-16T01:20:40.761Z,0.47
2023-03-16T01:21:40.670Z,0.46
2023-03-16T01:22:40.592Z,0.42
2023-03-16T01:23:40.496Z,0.46
2023-03-16T01:24:40.408Z,0.43
2023-03-16T01:25:40.315Z,0.46
2023-03-16T01:26:40.240Z,0.39
2023-03-16T01:27:40.137Z,0.32
2023-03-16T01:28:40.051Z,0.29
2023-03-16T01:29:39.958Z,0.34
2023-03-16T01:30:39.885Z,0.39
2023-03-16T01:31:39.784Z,0.29
2023-03-16T01:32:39.762Z,0.27
2023-03-16T01:33:39.600Z,0.25
2023-03-16T01:34:39.526Z,0.21
2023-03-16T01:35:39.523Z,0.29
2023-03-16T01:36:39.338Z,0.21
2023-03-16T01:37:39.246Z,0.14
2023-03-16T01:38:39.156Z,0.22
2023-03-16T01:39:39.066Z,0.29
2023-03-16T01:40:39.000Z,0.25
2023-03-16T01:41:38.892Z,0.27
2023-03-16T01:42:38.805Z,0.28
2023-03-16T01:43:38.763Z,0.28
2023-03-16T01:44:38.620Z,0.25
2023-03-16T01:45:38.529Z,0.25
2023-03-16T01:46:38.515Z,0.21
2023-03-16T01:47:38.479Z,0.13
2023-03-16T01:48:38.289Z,0.14
2023-03-16T01:49:38.175Z,0.07
2023-03-16T01:50:38.082Z,0.06
2023-03-16T01:51:38.036Z,-0.02
2023-03-16T01:52:37.903Z,-0.02
2023-03-16T01:53:37.817Z,-0.11
2023-03-16T01:54:37.761Z,-0.01
2023-03-16T01:55:37.635Z,-0.10
2023-03-16T01:56:37.549Z,-0.05
2023-03-16T01:57:37.456Z,0.03
2023-03-16T01:58:37.367Z,-0.08
2023-03-16T01:59:37.478Z,-0.14
2023-03-16T02:00:37.191Z,-0.15
2023-03-16T02:01:37.158Z,-0.12
2023-03-16T02:02:37.011Z,-0.10
2023-03-16T02:03:36.922Z,0.03
2023-03-16T02:04:36.905Z,-0.11
2023-03-16T02:05:36.744Z,-0.08
2023-03-16T02:06:36.656Z,-0.02
2023-03-16T02:07:36.592Z,-0.01
2023-03-16T02:08:36.474Z,-0.10
2023-03-16T02:09:36.385Z,-0.12
2023-03-16T02:10:36.293Z,-0.05
2023-03-16T02:11:36.208Z,0.03
2023-03-16T02:12:36.118Z,-0.07
2023-03-16T02:13:36.029Z,-0.05
2023-03-16T02:14:35.935Z,0.01
2023-03-16T02:15:35.938Z,0.06
2023-03-16T02:16:35.757Z,0.06
2023-03-16T02:17:35.677Z,-0.02
2023-03-16T02:18:35.577Z,0.01
2023-03-16T02:19:35.488Z,-0.04
2023-03-16T02:20:35.407Z,0.04
2023-03-16T02:21:35.310Z,0.04
2023-03-16T02:22:35.219Z,0.01
2023-03-16T02:23:35.354Z,0.04
2023-03-16T02:24:35.045Z,-0.04
2023-03-16T02:25:34.952Z,0.07
2023-03-16T02:26:34.861Z,0.09
2023-03-16T02:27:34.774Z,0.01
2023-03-16T02:28:34.682Z,0.01
2023-03-16T02:29:34.602Z,-0.05
2023-03-16T02:30:34.505Z,-0.01
2023-03-16T02:31:34.548Z,-0.01
2023-03-16T02:32:34.782Z,-0.02
2023-03-16T02:33:34.234Z,0.03
2023-03-16T02:34:34.147Z,0.01
2023-03-16T02:35:34.086Z,-0.02
2023-03-16T02:36:33.969Z,-0.05
2023-03-16T02:37:33.886Z,-0.05
2023-03-16T02:38:33.787Z,-0.05
2023-03-16T02:39:33.718Z,0.01
2023-03-16T02:40:33.611Z,-0.11
2023-03-16T02:41:33.518Z,-0.01
2023-03-16T02:42:33.439Z,-0.01
2023-03-16T02:43:33.393Z,-0.11
2023-03-16T02:44:33.251Z,-0.04
2023-03-16T02:45:33.160Z,-0.08
2023-03-16T02:46:33.127Z,0.01
2023-03-16T02:47:32.980Z,-0.07
2023-03-16T02:48:33.046Z,-0.02
2023-03-16T02:49:32.828Z,0.01
2023-03-16T02:50:32.715Z,-0.01
2023-03-16T02:51:32.620Z,0.01
2023-03-16T02:52:32.548Z,-0.04
2023-03-16T02:53:32.443Z,-0.02
2023-03-16T02:54:32.535Z,-0.01
2023-03-16T02:55:32.295Z,-0.07
2023-03-16T02:56:32.178Z,-0.02
2023-03-16T02:57:32.393Z,-0.05
2023-03-16T02:58:32.161Z,-0.02
2023-03-16T02:59:31.905Z,-0.05
2023-03-16T03:00:31.819Z,0.06
2023-03-16T03:01:31.732Z,0.03
2023-03-16T03:02:31.675Z,0.01
2023-03-16T03:03:31.575Z,-0.02
2023-03-16T03:04:31.459Z,-0.08
2023-03-16T03:05:31.372Z,-0.11
2023-03-16T03:06:31.283Z,-0.11
2023-03-16T03:07:31.189Z,-0.12
2023-03-16T03:08:31.096Z,-0.14
2023-03-16T03:09:31.011Z,-0.11
2023-03-16T03:10:30.919Z,-0.12
2023-03-16T03:11:30.847Z,-0.11
2023-03-16T03:12:30.742Z,-0.20
2023-03-16T03:13:30.652Z,-0.11
2023-03-16T03:14:30.563Z,-0.08
2023-03-16T03:15:30.478Z,-0.02
2023-03-16T03:16:30.423Z,0.07
2023-03-16T03:17:30.487Z,0.14
2023-03-16T03:18:30.205Z,0.17
2023-03-16T03:19:30.112Z,0.25
2023-03-16T03:20:30.521Z,0.25
2023-03-16T03:21:29.935Z,0.32
2023-03-16T03:22:29.847Z,0.42
2023-03-16T03:23:29.758Z,0.56
2023-03-16T03:24:29.665Z,0.90
2023-03-16T03:25:29.685Z,1.07
2023-03-16T03:26:29.487Z,1.26
2023-03-16T03:27:29.436Z,1.43
2023-03-16T03:28:29.311Z,1.44
2023-03-16T03:29:29.218Z,1.43
2023-03-16T03:30:29.521Z,1.47
2023-03-16T03:31:29.091Z,1.55
2023-03-16T03:32:29.086Z,1.59
2023-03-16T03:33:28.862Z,1.66
2023-03-16T03:34:28.770Z,1.68
2023-03-16T03:35:28.710Z,1.68
2023-03-16T03:36:28.593Z,1.69
2023-03-16T03:37:28.504Z,1.72
2023-03-16T03:38:28.421Z,1.72
2023-03-16T03:39:28.329Z,1.79
2023-03-16T03:40:28.413Z,1.76
2023-03-16T03:41:28.148Z,1.77
2023-03-16T03:42:28.058Z,1.73
2023-03-16T03:43:27.993Z,1.76
2023-03-16T03:44:27.883Z,1.74
2023-03-16T03:45:27.826Z,1.76
2023-03-16T03:46:27.917Z,1.79
2023-03-16T03:47:27.618Z,1.77
2023-03-16T03:48:27.533Z,1.65
2023-03-16T03:49:27.437Z,1.52
2023-03-16T03:50:27.637Z,1.46
2023-03-16T03:51:27.260Z,1.30
2023-03-16T03:52:27.179Z,1.20
2023-03-16T03:53:27.079Z,1.02
2023-03-16T03:54:26.992Z,1.01
2023-03-16T03:55:26.900Z,0.89
2023-03-16T03:56:26.813Z,0.94
2023-03-16T03:57:26.925Z,0.97
2023-03-16T03:58:26.633Z,0.93
2023-03-16T03:59:26.773Z,0.75
2023-03-16T04:00:26.821Z,0.68
2023-03-16T04:01:26.381Z,0.66
2023-03-16T04:02:26.446Z,0.69
2023-03-16T04:03:26.262Z,0.64
2023-03-16T04:04:26.149Z,0.56
2023-03-16T04:05:26.017Z,0.62
2023-03-16T04:06:25.973Z,0.53
2023-03-16T04:07:25.834Z,0.57
2023-03-16T04:08:25.758Z,0.59
2023-03-16T04:09:25.656Z,0.50
2023-03-16T04:10:26.031Z,0.64
2023-03-16T04:11:25.484Z,0.77
2023-03-16T04:12:25.387Z,0.82
2023-03-16T04:13:25.299Z,0.80
2023-03-16T04:14:25.210Z,0.80
2023-03-16T04:15:25.146Z,0.84
2023-03-16T04:16:25.050Z,0.75
2023-03-16T04:17:24.951Z,0.98
2023-03-16T04:18:24.859Z,0.98
2023-03-16T04:19:24.763Z,1.04
2023-03-16T04:20:24.749Z,0.97
2023-03-16T04:21:24.636Z,1.22
2023-03-16T04:22:24.503Z,1.48
2023-03-16T04:23:24.405Z,1.56
2023-03-16T04:24:24.322Z,1.66
2023-03-16T04:25:24.228Z,1.77
2023-03-16T04:26:24.140Z,1.74
2023-03-16T04:27:24.050Z,1.76
2023-03-16T04:28:23.963Z,1.76
2023-03-16T04:29:23.879Z,1.68
2023-03-16T04:30:23.787Z,1.69
2023-03-16T04:31:23.749Z,1.74
2023-03-16T04:32:23.673Z,1.65
2023-03-16T04:33:23.520Z,1.68
2023-03-16T04:34:23.429Z,1.73
2023-03-16T04:35:23.341Z,1.77
2023-03-16T04:36:23.252Z,1.84
2023-03-16T04:37:23.160Z,1.80
2023-03-16T04:38:23.073Z,1.80
2023-03-16T04:39:22.996Z,1.87
2023-03-16T04:40:22.896Z,1.91
2023-03-16T04:41:22.810Z,2.03
2023-03-16T04:42:22.716Z,1.94
2023-03-16T04:43:22.629Z,1.80
2023-03-16T04:44:22.544Z,1.73
2023-03-16T04:45:22.456Z,1.79
2023-03-16T04:46:22.533Z,1.77
2023-03-16T04:47:22.296Z,1.72
2023-03-16T04:48:22.184Z,1.73
2023-03-16T04:49:22.100Z,1.76
2023-03-16T04:50:22.008Z,1.59
2023-03-16T04:51:21.917Z,1.61
2023-03-16T04:52:21.833Z,1.50
2023-03-16T04:53:21.739Z,1.41
2023-03-16T04:54:21.654Z,1.34
2023-03-16T04:55:21.569Z,1.34
2023-03-16T04:56:21.476Z,1.29
2023-03-16T04:57:21.385Z,1.37
2023-03-16T04:58:21.297Z,1.30
2023-03-16T04:59:21.210Z,1.30
2023-03-16T05:00:21.120Z,1.26
2023-03-16T05:01:21.109Z,1.32
2023-03-16T05:02:20.955Z,1.34
2023-03-16T05:03:20.876Z,1.30
2023-03-16T05:04:20.771Z,1.29
2023-03-16T05:05:20.713Z,1.32
2023-03-16T05:06:20.586Z,1.36
2023-03-16T05:07:20.498Z,1.34
2023-03-16T05:08:20.619Z,1.54
2023-03-16T05:09:20.321Z,1.50
2023-03-16T05:10:20.228Z,1.46
2023-03-16T05:11:20.341Z,1.52
2023-03-16T05:12:20.052Z,1.55
2023-03-16T05:13:19.965Z,1.47
2023-03-16T05:14:19.885Z,1.47
2023-03-16T05:15:19.885Z,1.34
2023-03-16T05:16:19.790Z,1.32
2023-03-16T05:17:19.615Z,1.36
2023-03-16T05:18:19.529Z,1.46
2023-03-16T05:19:19.451Z,1.61
2023-03-16T05:20:19.352Z,1.58
2023-03-16T05:21:19.254Z,1.56
2023-03-16T05:22:19.169Z,1.56
2023-03-16T05:23:19.075Z,1.47
2023-03-16T05:24:18.990Z,1.47
2023-03-16T05:25:18.898Z,1.48
2023-03-16T05:26:18.809Z,1.44
2023-03-16T05:27:18.730Z,1.52
2023-03-16T05:28:18.645Z,1.47
2023-03-16T05:29:18.545Z,1.48
2023-03-16T05:30:18.458Z,1.52
2023-03-16T05:31:18.448Z,1.55
2023-03-16T05:32:18.283Z,1.47
2023-03-16T05:33:18.188Z,1.50
2023-03-16T05:34:18.106Z,1.46
2023-03-16T05:35:18.042Z,1.44
2023-03-16T05:36:18.185Z,1.43
2023-03-16T05:37:18.084Z,1.44
2023-03-16T05:38:17.750Z,1.46
2023-03-16T05:40:17.572Z,1.44
2023-03-16T05:41:17.533Z,1.41
2023-03-16T05:42:17.397Z,1.43
2023-03-16T05:43:17.308Z,1.25
2023-03-16T05:44:17.231Z,1.30
2023-03-16T05:45:17.132Z,1.29
2023-03-16T05:46:19.592Z,1.29
2023-03-16T05:47:16.956Z,1.36
2023-03-16T05:48:16.872Z,1.28
2023-03-16T05:49:16.777Z,1.37
2023-03-16T05:50:16.694Z,1.44
2023-03-16T05:51:16.620Z,1.43
2023-03-16T05:52:16.509Z,1.52
2023-03-16T05:53:16.423Z,1.44
2023-03-16T05:54:16.335Z,1.50
2023-03-16T05:55:16.248Z,1.44
2023-03-16T05:56:16.168Z,1.44
2023-03-16T05:57:16.069Z,1.41
2023-03-16T05:58:16.031Z,1.50
2023-03-16T05:59:15.922Z,1.61
2023-03-16T06:00:15.808Z,1.54
2023-03-16T06:01:15.743Z,1.55
2023-03-16T06:02:15.627Z,1.54
2023-03-16T06:03:15.588Z,1.55
2023-03-16T06:04:15.568Z,1.54
2023-03-16T06:05:15.363Z,1.61
2023-03-16T06:06:15.274Z,1.74
2023-03-16T06:07:15.220Z,1.69
2023-03-16T06:08:15.097Z,1.74
2023-03-16T06:09:15.009Z,1.66
2023-03-16T06:10:15.170Z,1.74
2023-03-16T06:11:14.839Z,1.79
2023-03-16T06:12:14.792Z,1.72
2023-03-16T06:13:14.653Z,1.69
2023-03-16T06:14:14.566Z,1.69
2023-03-16T06:15:14.478Z,1.73
2023-03-16T06:16:14.495Z,1.77
2023-03-16T06:17:14.333Z,1.68
2023-03-16T06:18:14.213Z,1.77
2023-03-16T06:19:14.129Z,1.90
2023-03-16T06:20:14.036Z,1.86
2023-03-16T06:21:13.950Z,1.84
2023-03-16T06:22:13.944Z,1.84
2023-03-16T06:23:13.796Z,1.92
2023-03-16T06:24:13.790Z,1.86
2023-03-16T06:25:13.602Z,1.86
2023-03-16T06:26:13.508Z,2.16
2023-03-16T06:27:13.419Z,2.21
2023-03-16T06:28:13.328Z,2.26
2023-03-16T06:29:13.254Z,2.20
2023-03-16T06:30:13.156Z,2.26
2023-03-16T06:31:13.127Z,2.35
2023-03-16T06:32:12.986Z,2.32
2023-03-16T06:33:12.890Z,2.24
2023-03-16T06:34:12.800Z,2.26
2023-03-16T06:35:12.715Z,2.19
2023-03-16T06:36:12.699Z,2.14
2023-03-16T06:37:12.545Z,2.12
2023-03-16T06:38:12.451Z,2.10
2023-03-16T06:39:12.585Z,2.03
2023-03-16T06:40:12.277Z,2.10
2023-03-16T06:41:12.189Z,2.05
2023-03-16T06:42:12.106Z,2.10
2023-03-16T06:43:12.015Z,2.05
2023-03-16T06:44:11.922Z,2.01
2023-03-16T06:45:11.838Z,2.02
2023-03-16T06:46:11.814Z,1.99
2023-03-16T06:47:11.660Z,2.12
2023-03-16T06:48:11.569Z,2.02
2023-03-16T06:49:11.485Z,2.12
2023-03-16T06:50:11.396Z,2.12
2023-03-16T06:51:11.308Z,2.14
2023-03-16T06:52:11.219Z,2.01
2023-03-16T06:53:11.131Z,2.12
2023-03-16T06:54:11.047Z,2.14
2023-03-16T06:55:10.978Z,2.19
2023-03-16T06:56:10.869Z,2.09
2023-03-16T06:57:10.780Z,2.24
2023-03-16T06:58:10.692Z,2.32
2023-03-16T06:59:10.605Z,2.50
2023-03-16T07:00:10.564Z,2.80
2023-03-16T07:01:10.510Z,2.86
2023-03-16T07:02:10.351Z,3.11
2023-03-16T07:03:10.253Z,3.10
2023-03-16T07:04:10.274Z,3.24
2023-03-16T07:05:10.126Z,3.29
2023-03-16T07:06:09.996Z,3.48
2023-03-16T07:07:09.904Z,3.53
2023-03-16T07:08:09.810Z,3.59
2023-03-16T07:09:09.725Z,3.56
2023-03-16T07:10:09.634Z,3.56
2023-03-16T07:11:09.570Z,3.57
2023-03-16T07:12:09.459Z,3.59
2023-03-16T07:13:09.373Z,3.62
2023-03-16T07:14:09.303Z,3.61
2023-03-16T07:15:09.452Z,3.62
2023-03-16T07:16:09.178Z,3.64
2023-03-16T07:17:09.021Z,3.69
2023-03-16T07:18:08.932Z,3.83
2023-03-16T07:19:08.872Z,3.84
2023-03-16T07:20:08.757Z,3.87
2023-03-16T07:21:08.672Z,3.94
2023-03-16T07:22:08.582Z,4.08
2023-03-16T07:23:08.506Z,4.02
2023-03-16T07:24:08.414Z,4.08
2023-03-16T07:25:08.347Z,4.23
2023-03-16T07:26:08.379Z,4.25
2023-03-16T07:27:08.193Z,4.30
2023-03-16T07:28:08.064Z,4.36
2023-03-16T07:29:07.977Z,4.25
2023-03-16T07:30:07.908Z,4.37
2023-03-16T07:31:07.825Z,4.43
2023-03-16T07:32:07.803Z,4.54
2023-03-16T07:33:07.790Z,4.55
2023-03-16T07:34:07.840Z,4.55
2023-03-16T07:35:07.468Z,4.68
2023-03-16T07:36:07.439Z,4.80
2023-03-16T07:37:07.532Z,4.74
2023-03-16T07:38:07.194Z,4.91
2023-03-16T07:39:07.109Z,4.88
2023-03-16T07:40:07.024Z,4.88
2023-03-16T07:41:06.944Z,4.95
2023-03-16T07:42:06.865Z,4.99
2023-03-16T07:43:06.784Z,4.96
2023-03-16T07:44:06.677Z,5.00
2023-03-16T07:45:06.593Z,5.10
2023-03-16T07:46:06.604Z,5.08
2023-03-16T07:47:06.441Z,5.14
2023-03-16T07:48:06.330Z,5.17
2023-03-16T07:49:06.249Z,5.17
2023-03-16T07:50:06.170Z,5.26
2023-03-16T07:51:06.080Z,5.23
2023-03-16T07:52:05.988Z,5.23
2023-03-16T07:53:05.913Z,5.29
2023-03-16T07:54:05.818Z,5.18
2023-03-16T07:55:05.739Z,5.24
2023-03-16T07:56:05.647Z,5.29
2023-03-16T07:57:05.575Z,5.28
2023-03-16T07:58:05.477Z,5.29
2023-03-16T07:59:05.409Z,5.31
2023-03-16T08:00:05.352Z,5.23
2023-03-16T08:01:05.214Z,5.24
2023-03-16T08:02:05.189Z,5.17
2023-03-16T08:03:05.040Z,5.16
2023-03-16T08:04:05.040Z,5.18
2023-03-16T08:05:04.868Z,5.16
2023-03-16T08:06:04.785Z,5.14
2023-03-16T08:07:04.697Z,5.20
2023-03-16T08:08:04.612Z,5.20
2023-03-16T08:09:04.523Z,5.24
2023-03-16T08:10:04.436Z,5.28
2023-03-16T08:11:04.352Z,5.38
2023-03-16T08:12:04.265Z,5.39
2023-03-16T08:13:04.211Z,5.38
2023-03-16T08:14:04.092Z,5.57
2023-03-16T08:15:04.030Z,5.52
2023-03-16T08:16:04.286Z,5.62
2023-03-16T08:17:03.850Z,5.67
2023-03-16T08:18:03.754Z,5.75
2023-03-16T08:19:03.676Z,5.68
2023-03-16T08:20:03.581Z,5.72
2023-03-16T08:21:03.493Z,5.83
2023-03-16T08:22:03.406Z,5.86
2023-03-16T08:23:03.326Z,6.04
2023-03-16T08:24:03.248Z,6.06
2023-03-16T08:25:03.149Z,6.04
2023-03-16T08:26:03.071Z,6.06
2023-03-16T08:27:02.979Z,6.03
2023-03-16T08:28:02.896Z,6.10
2023-03-16T08:29:02.881Z,6.07
2023-03-16T08:30:02.725Z,6.18
2023-03-16T08:31:02.728Z,6.30
2023-03-16T08:32:02.559Z,6.27
2023-03-16T08:33:02.539Z,6.33
2023-03-16T08:34:02.401Z,6.39
2023-03-16T08:35:02.324Z,6.34
2023-03-16T08:36:02.337Z,6.45
2023-03-16T08:37:02.128Z,6.54
2023-03-16T08:38:02.055Z,6.63
2023-03-16T08:39:07.010Z,6.63
2023-03-16T08:40:01.876Z,6.73
2023-03-16T08:41:01.785Z,6.62
2023-03-16T08:42:01.703Z,6.72
2023-03-16T08:43:01.616Z,6.73
2023-03-16T08:44:01.580Z,6.87
2023-03-16T08:45:01.444Z,6.81
2023-03-16T08:46:01.369Z,6.78
2023-03-16T08:47:01.292Z,6.88
2023-03-16T08:48:01.195Z,6.96
2023-03-16T08:49:01.122Z,6.94
2023-03-16T08:50:01.023Z,6.81
2023-03-16T08:51:00.945Z,6.94
2023-03-16T08:52:00.861Z,6.99
2023-03-16T08:53:01.063Z,7.11
2023-03-16T08:54:00.688Z,7.17
2023-03-16T08:55:03.793Z,7.27
2023-03-16T08:56:00.762Z,7.19
2023-03-16T08:57:00.442Z,7.26
2023-03-16T08:58:00.341Z,7.39
2023-03-16T08:59:00.358Z,7.39
2023-03-16T09:00:00.244Z,7.45
2023-03-16T09:01:00.103Z,7.45
2023-03-16T09:02:00.011Z,7.44
2023-03-16T09:03:00.009Z,7.52
2023-03-16T09:03:59.915Z,7.55
2023-03-16T09:05:00.058Z,7.62
2023-03-16T09:05:59.663Z,7.53
2023-03-16T09:07:08.323Z,7.68
2023-03-16T09:08:59.410Z,7.76
2023-03-16T09:09:59.386Z,7.81
2023-03-16T09:10:59.248Z,7.86
2023-03-16T09:11:59.158Z,7.83
2023-03-16T09:12:59.094Z,7.85
2023-03-16T09:13:58.993Z,7.83
2023-03-16T09:14:58.924Z,7.96
2023-03-16T09:15:58.867Z,7.88
2023-03-16T09:16:58.743Z,7.86
2023-03-16T09:17:58.652Z,8.03
2023-03-16T09:18:58.661Z,8.01
2023-03-16T09:20:08.121Z,8.06
2023-03-16T09:20:59.993Z,8.15
2023-03-16T09:21:58.316Z,8.14
2023-03-16T09:22:58.246Z,8.12
2023-03-16T09:23:58.152Z,8.17
2023-03-16T09:24:58.079Z,8.22
2023-03-16T09:25:57.986Z,8.22
2023-03-16T09:26:57.953Z,8.29
2023-03-16T09:27:57.816Z,8.32
2023-03-16T09:28:57.734Z,8.24
2023-03-16T09:29:57.649Z,8.27
2023-03-16T09:30:57.571Z,8.33
2023-03-16T09:31:57.506Z,8.39
2023-03-16T09:32:57.440Z,8.52
2023-03-16T09:33:57.316Z,8.58
2023-03-16T09:34:57.264Z,8.50
2023-03-16T09:35:57.182Z,8.57
2023-03-16T09:36:57.069Z,8.66
2023-03-16T09:38:05.872Z,8.68
2023-03-16T09:38:56.901Z,8.69
2023-03-16T09:40:03.210Z,8.79
2023-03-16T09:40:56.734Z,8.84
2023-03-16T09:41:56.661Z,8.98
2023-03-16T09:42:56.634Z,8.90
2023-03-16T09:43:56.492Z,8.93
2023-03-16T09:44:56.408Z,8.82
2023-03-16T09:45:56.420Z,8.80
2023-03-16T09:46:56.287Z,8.85
2023-03-16T09:47:56.155Z,8.77
2023-03-16T09:48:56.074Z,8.80
2023-03-16T09:49:55.990Z,8.91
2023-03-16T09:50:56.480Z,8.93
2023-03-16T09:51:55.830Z,8.90
2023-03-16T09:52:55.748Z,9.02
2023-03-16T09:53:55.657Z,9.02
2023-03-16T09:54:55.576Z,8.94
2023-03-16T09:55:55.515Z,8.87
2023-03-16T09:56:55.411Z,8.82
2023-03-16T09:57:55.327Z,8.80
2023-03-16T09:58:55.244Z,8.84
2023-03-16T09:59:55.215Z,8.69
2023-03-16T10:00:55.397Z,8.87
2023-03-16T10:01:54.999Z,8.88
2023-03-16T10:02:54.915Z,8.93
2023-03-16T10:03:54.848Z,8.85
2023-03-16T10:04:54.753Z,8.85
2023-03-16T10:05:54.671Z,8.82
2023-03-16T10:06:54.606Z,8.61
2023-03-16T10:07:54.502Z,8.62
2023-03-16T10:08:54.420Z,8.91
2023-03-16T10:09:54.338Z,8.97
2023-03-16T10:10:54.261Z,9.10
2023-03-16T10:11:54.193Z,9.09
2023-03-16T10:12:54.106Z,9.02
2023-03-16T10:13:54.011Z,9.06
2023-03-16T10:14:53.964Z,9.16
2023-03-16T10:15:53.848Z,9.31
2023-03-16T10:16:53.771Z,9.35
2023-03-16T10:17:53.692Z,9.40
2023-03-16T10:18:53.619Z,9.46
2023-03-16T10:19:53.516Z,9.47
2023-03-16T10:20:53.437Z,9.56
2023-03-16T10:21:53.352Z,9.67
2023-03-16T10:22:53.297Z,9.53
2023-03-16T10:23:53.188Z,9.72
2023-03-16T10:24:53.113Z,9.82
2023-03-16T10:25:53.040Z,9.85
2023-03-16T10:26:52.961Z,10.03
2023-03-16T10:27:52.871Z,10.11
2023-03-16T10:28:52.790Z,10.18
2023-03-16T10:29:52.701Z,9.96
2023-03-16T10:30:52.626Z,10.01
2023-03-16T10:31:52.598Z,9.96
2023-03-16T10:32:52.610Z,9.90
2023-03-16T10:33:52.379Z,9.97
2023-03-16T10:34:52.299Z,9.92
2023-03-16T10:35:52.226Z,9.70
2023-03-16T10:36:52.160Z,9.79
2023-03-16T10:37:52.064Z,9.88
2023-03-16T10:38:52.004Z,9.96
2023-03-16T10:39:51.903Z,9.96
2023-03-16T10:40:51.821Z,10.03
2023-03-16T10:41:51.737Z,10.33
2023-03-16T10:42:51.670Z,10.87
2023-03-16T10:43:51.582Z,10.95
2023-03-16T10:44:51.501Z,11.13
2023-03-16T10:45:51.430Z,10.75
2023-03-16T10:46:51.438Z,10.65
2023-03-16T10:47:51.264Z,10.74
2023-03-16T10:48:51.188Z,10.80
2023-03-16T10:49:51.103Z,10.46
2023-03-16T10:50:51.026Z,10.26
2023-03-16T10:51:50.946Z,10.25
2023-03-16T10:52:51.069Z,10.71
2023-03-16T10:53:50.796Z,10.88
2023-03-16T10:54:50.728Z,11.31
2023-03-16T10:55:50.630Z,11.43
2023-03-16T10:56:50.548Z,11.31
2023-03-16T10:57:50.512Z,11.54
2023-03-16T10:58:50.393Z,11.36
2023-03-16T10:59:50.311Z,11.36
2023-03-16T11:00:50.238Z,11.68
2023-03-16T11:01:50.243Z,11.78
2023-03-16T11:02:50.077Z,12.33
2023-03-16T11:03:49.997Z,12.45
2023-03-16T11:04:49.932Z,12.56
2023-03-16T11:05:49.861Z,12.36
2023-03-16T11:06:49.765Z,12.36
2023-03-16T11:07:49.687Z,12.23
2023-03-16T11:08:49.663Z,12.15
2023-03-16T11:09:49.540Z,11.98
2023-03-16T11:10:55.895Z,12.16
2023-03-16T11:11:49.398Z,12.12
2023-03-16T11:12:49.301Z,12.16
2023-03-16T11:13:49.227Z,12.28
2023-03-16T11:14:49.214Z,12.51
2023-03-16T11:15:49.074Z,12.55
2023-03-16T11:24:50.818Z,13.06
2023-03-16T11:25:50.732Z,13.48
2023-03-16T11:26:50.783Z,13.52
2023-03-16T11:31:59.390Z,13.11
2023-03-16T11:32:59.351Z,13.50
2023-03-16T11:33:59.241Z,13.44
2023-03-16T11:34:59.166Z,13.27
2023-03-16T11:35:59.691Z,13.24
2023-03-16T11:36:59.017Z,13.37
2023-03-16T11:37:58.947Z,13.14
2023-03-16T11:38:58.868Z,13.06
2023-03-16T11:39:58.795Z,13.17
2023-03-16T11:40:58.771Z,13.59
2023-03-16T11:41:58.743Z,13.87
2023-03-16T11:42:58.570Z,14.14
2023-03-16T11:43:58.499Z,14.31
2023-03-16T11:44:58.421Z,13.95
2023-03-16T11:45:58.410Z,13.76
2023-03-16T11:46:58.278Z,13.18
2023-03-16T11:47:58.202Z,13.28
2023-03-16T11:48:58.127Z,13.55
2023-03-16T11:49:58.057Z,13.63
2023-03-16T11:50:57.980Z,13.81
2023-03-16T11:52:00.541Z,14.20
2023-03-16T11:52:57.830Z,14.42
2023-03-16T11:53:57.760Z,15.10
2023-03-16T11:54:57.679Z,15.59
2023-03-16T11:55:57.606Z,15.45
2023-03-16T11:56:57.547Z,15.20
2023-03-16T11:57:58.206Z,15.20
2023-03-16T11:58:57.420Z,15.18
2023-03-16T12:00:01.979Z,15.41
2023-03-16T12:00:57.582Z,15.73
2023-03-16T12:02:00.702Z,15.34
2023-03-16T12:02:57.250Z,15.41
2023-03-16T12:03:57.121Z,14.71
2023-03-16T12:04:56.947Z,14.42
2023-03-16T12:05:56.877Z,13.81
2023-03-16T12:06:56.803Z,13.63
2023-03-16T12:07:56.743Z,13.77
2023-03-16T12:08:56.658Z,13.76
2023-03-16T12:09:56.619Z,14.17
2023-03-16T12:11:59.168Z,14.60
2023-03-16T12:15:25.028Z,15.09
2023-03-16T12:16:26.144Z,15.45
2023-03-16T12:30:09.693Z,13.25
2023-03-16T12:31:09.734Z,13.18
2023-03-16T12:32:10.954Z,12.99
2023-03-16T12:33:09.784Z,12.74
2023-03-16T12:34:09.393Z,12.64
2023-03-16T12:35:10.869Z,12.70
2023-03-16T12:36:09.286Z,12.79
2023-03-16T12:37:09.167Z,12.73
2023-03-16T12:38:09.098Z,12.63
2023-03-16T12:39:09.017Z,12.71
2023-03-16T12:40:08.966Z,12.81
2023-03-16T12:41:08.873Z,12.81
2023-03-16T12:42:08.798Z,12.88
2023-03-16T12:43:08.718Z,12.71
2023-03-16T12:44:08.681Z,13.59
2023-03-16T12:45:08.573Z,14.16
2023-03-16T12:46:08.731Z,14.19
2023-03-16T12:47:08.439Z,14.44
2023-03-16T12:48:08.596Z,14.74
2023-03-16T12:49:08.272Z,15.21
2023-03-16T12:50:08.200Z,15.12
2023-03-16T12:51:08.121Z,15.45
2023-03-16T12:52:10.111Z,15.15
2023-03-16T12:53:10.596Z,15.33
2023-03-16T12:54:07.901Z,15.05
2023-03-16T12:55:07.828Z,14.90
2023-03-16T12:56:07.753Z,14.85
2023-03-16T12:57:07.683Z,15.02
2023-03-16T12:58:07.611Z,14.32
2023-03-16T12:59:07.547Z,13.94
2023-03-16T13:00:07.461Z,14.03
2023-03-16T13:01:07.404Z,13.94
2023-03-16T13:02:07.322Z,13.62
2023-03-16T13:03:07.410Z,13.74
2023-03-16T13:04:07.226Z,13.52
2023-03-16T13:05:07.113Z,13.50
2023-03-16T13:06:07.156Z,13.59
2023-03-16T13:07:06.951Z,13.76
2023-03-16T13:08:06.907Z,13.98
2023-03-16T13:09:06.806Z,14.46
2023-03-16T13:10:06.737Z,15.12
2023-03-16T13:11:06.655Z,15.83
2023-03-16T13:12:06.626Z,16.06
2023-03-16T13:13:06.511Z,16.26
2023-03-16T13:14:06.453Z,16.70
2023-03-16T13:15:07.677Z,16.55
2023-03-16T13:36:42.157Z,16.29
2023-03-16T13:37:42.031Z,17.03
2023-03-16T13:38:44.622Z,17.51
2023-03-16T13:39:41.870Z,17.55
2023-03-16T13:40:41.802Z,17.54
2023-03-16T13:41:43.442Z,17.21
2023-03-16T13:42:41.661Z,17.35
2023-03-16T13:43:41.592Z,17.13
2023-03-16T13:44:41.526Z,16.93
2023-03-16T14:21:02.388Z,14.38
2023-03-16T14:22:02.294Z,14.35
2023-03-16T14:23:02.223Z,14.46
2023-03-16T14:24:02.148Z,14.42
2023-03-16T14:25:02.079Z,14.19
2023-03-16T14:26:02.014Z,14.21
2023-03-16T14:27:01.935Z,14.16
2023-03-16T14:28:01.862Z,14.07
2023-03-16T14:29:01.795Z,14.03
2023-03-16T14:30:01.718Z,14.09
2023-03-16T14:31:01.730Z,14.16
2023-03-16T14:32:01.725Z,14.24
2023-03-16T14:33:01.614Z,14.11
2023-03-16T14:35:01.353Z,13.96
2023-03-16T14:36:01.313Z,13.74
2023-03-16T14:37:01.261Z,13.45
2023-03-16T14:38:01.143Z,13.18